CSCL Oceania — VRBI2 — position and weather

sailwx.info

Track history (hours):
 
Tides and Currents Weather Stations Pressure Air Temp Water Temp Dewpoint Dewpoint Depression Visibility Wind Speed Wind Dir Waves Ship Positions

CSCL Oceania

Last reported at 2015-Mar-02 18:33 UTC. Time now 2015-Mar-02 19:08 UTC.
Position N 23°29' E 117°53'.

Length 334 m; beam 42.8 m; draft 14.5 m.

Type: Cargo ship. MMSI: 477020300.

Date/timePositionNaut miles runAvg speedWind from/ knotsBaromVisibWave heightAir tempDewpointWater temp
2015-Mar-02 18:33N 23°29' E 117°53'1311.4
2015-Mar-02 17:22N 23°21' E 117°41'3511.8
2015-Mar-02 14:25N 23°01' E 117°10'1112.5
2015-Mar-02 13:32N 22°53' E 117°01'14511.2
2015-Mar-02 00:33N 22°07' E 114°33'1211.6
2015-Mar-01 23:34N 22°07' E 114°20'10 9.6
2015-Mar-01 22:32N 22°12' E 114°11'8 8.5
2015-Mar-01 21:34N 22°19' E 114°07'1 0.7
2015-Mar-01 20:33N 22°20' E 114°07'0 0.0
2015-Mar-01 19:33N 22°20' E 114°07'0 0.0
2015-Mar-01 18:33N 22°20' E 114°07'0 0.0
2015-Mar-01 17:33N 22°20' E 114°07'0 0.0
2015-Mar-01 16:34N 22°20' E 114°07'0 0.0
2015-Mar-01 15:33N 22°20' E 114°07'0 0.0
2015-Mar-01 14:33N 22°20' E 114°07'0 0.0
2015-Mar-01 13:34N 22°20' E 114°07'0 0.0
2015-Mar-01 12:33N 22°20' E 114°07'0 0.0
2015-Mar-01 11:30N 22°20' E 114°07'0 0.0
2015-Mar-01 10:33N 22°20' E 114°07'0 0.0
2015-Mar-01 09:34N 22°20' E 114°07'0 0.0
2015-Mar-01 08:30N 22°20' E 114°07'0 0.0
2015-Mar-01 07:31N 22°20' E 114°07'0 0.1
2015-Mar-01 06:33N 22°20' E 114°07'8 7.0
2015-Mar-01 05:28N 22°13' E 114°10'8 7.9
2015-Mar-01 04:27N 22°09' E 114°17'8 9.5
2015-Mar-01 03:34N 22°08' E 114°26'3 2.5
2015-Mar-01 02:33N 22°06' E 114°27'2 2.2
2015-Mar-01 01:33N 22°04' E 114°28'8 8.4
2015-Mar-01 00:33N 21°56' E 114°24'  
2015-Feb-24 21:19N 01°15' E 104°12'1115.0
2015-Feb-24 20:33N 01°14' E 104°00'1111.1
2015-Feb-24 19:32N 01°12' E 103°49'5 4.7
2015-Feb-24 18:29N 01°16' E 103°47'0 0.0
2015-Feb-24 17:26N 01°16' E 103°47'0 0.0
2015-Feb-24 16:29N 01°16' E 103°47'0 0.0
2015-Feb-24 15:29N 01°16' E 103°47'0 0.0
2015-Feb-24 14:29N 01°16' E 103°47'0 0.0
2015-Feb-24 13:29N 01°16' E 103°47'0 0.0
2015-Feb-24 12:29N 01°16' E 103°47'0 0.0
2015-Feb-24 11:32N 01°16' E 103°47'0 0.0
2015-Feb-24 10:29N 01°16' E 103°47'0 0.0
2015-Feb-24 09:29N 01°16' E 103°47'0 0.0
2015-Feb-24 08:29N 01°16' E 103°47'0 0.0
2015-Feb-24 07:29N 01°16' E 103°47'0 0.0
2015-Feb-24 06:29N 01°16' E 103°47'0 0.0
2015-Feb-24 05:29N 01°16' E 103°47'0 0.0
2015-Feb-24 04:29N 01°16' E 103°47'0 0.0
2015-Feb-24 03:33N 01°16' E 103°47'3 2.7
2015-Feb-24 02:33N 01°15' E 103°45'8714.4
2015-Feb-23 20:29N 01°50' E 102°25'  
Track history (hours):
 
Tides and Currents Weather Stations Pressure Air Temp Water Temp Dewpoint Dewpoint Depression Visibility Wind Speed Wind Dir Waves Ship Positions

CSCL Oceania

Last reported at 2015-Mar-02 18:33 UTC. Time now 2015-Mar-02 19:08 UTC.
Position N 23°29' E 117°53'.

Length 334 m; beam 42.8 m; draft 14.5 m.

Type: Cargo ship. MMSI: 477020300.

Date/timePositionNaut miles runAvg speedWind from/ knotsBaromVisibWave heightAir tempDewpointWater temp
2015-Mar-02 18:33N 23°29' E 117°53'1311.4
2015-Mar-02 17:22N 23°21' E 117°41'3511.8
2015-Mar-02 14:25N 23°01' E 117°10'1112.5
2015-Mar-02 13:32N 22°53' E 117°01'14511.2
2015-Mar-02 00:33N 22°07' E 114°33'1211.6
2015-Mar-01 23:34N 22°07' E 114°20'10 9.6
2015-Mar-01 22:32N 22°12' E 114°11'8 8.5
2015-Mar-01 21:34N 22°19' E 114°07'1 0.7
2015-Mar-01 20:33N 22°20' E 114°07'0 0.0
2015-Mar-01 19:33N 22°20' E 114°07'0 0.0
2015-Mar-01 18:33N 22°20' E 114°07'0 0.0
2015-Mar-01 17:33N 22°20' E 114°07'0 0.0
2015-Mar-01 16:34N 22°20' E 114°07'0 0.0
2015-Mar-01 15:33N 22°20' E 114°07'0 0.0
2015-Mar-01 14:33N 22°20' E 114°07'0 0.0
2015-Mar-01 13:34N 22°20' E 114°07'0 0.0
2015-Mar-01 12:33N 22°20' E 114°07'0 0.0
2015-Mar-01 11:30N 22°20' E 114°07'0 0.0
2015-Mar-01 10:33N 22°20' E 114°07'0 0.0
2015-Mar-01 09:34N 22°20' E 114°07'0 0.0
2015-Mar-01 08:30N 22°20' E 114°07'0 0.0
2015-Mar-01 07:31N 22°20' E 114°07'0 0.1
2015-Mar-01 06:33N 22°20' E 114°07'8 7.0
2015-Mar-01 05:28N 22°13' E 114°10'8 7.9
2015-Mar-01 04:27N 22°09' E 114°17'8 9.5
2015-Mar-01 03:34N 22°08' E 114°26'3 2.5
2015-Mar-01 02:33N 22°06' E 114°27'2 2.2
2015-Mar-01 01:33N 22°04' E 114°28'8 8.4
2015-Mar-01 00:33N 21°56' E 114°24'  
2015-Feb-24 21:19N 01°15' E 104°12'1115.0
2015-Feb-24 20:33N 01°14' E 104°00'1111.1
2015-Feb-24 19:32N 01°12' E 103°49'5 4.7
2015-Feb-24 18:29N 01°16' E 103°47'0 0.0
2015-Feb-24 17:26N 01°16' E 103°47'0 0.0
2015-Feb-24 16:29N 01°16' E 103°47'0 0.0
2015-Feb-24 15:29N 01°16' E 103°47'0 0.0
2015-Feb-24 14:29N 01°16' E 103°47'0 0.0
2015-Feb-24 13:29N 01°16' E 103°47'0 0.0
2015-Feb-24 12:29N 01°16' E 103°47'0 0.0
2015-Feb-24 11:32N 01°16' E 103°47'0 0.0
2015-Feb-24 10:29N 01°16' E 103°47'0 0.0
2015-Feb-24 09:29N 01°16' E 103°47'0 0.0
2015-Feb-24 08:29N 01°16' E 103°47'0 0.0
2015-Feb-24 07:29N 01°16' E 103°47'0 0.0
2015-Feb-24 06:29N 01°16' E 103°47'0 0.0
2015-Feb-24 05:29N 01°16' E 103°47'0 0.0
2015-Feb-24 04:29N 01°16' E 103°47'0 0.0
2015-Feb-24 03:33N 01°16' E 103°47'3 2.7
2015-Feb-24 02:33N 01°15' E 103°45'8714.4
2015-Feb-23 20:29N 01°50' E 102°25'  

Dump ship's entire track history